Time;durP1;ratioP1;P1;durP2;ratioP2;P2;SDS_P1;SDS_P2;PMS_P1;PMS_P2;Temp;Humidity;BMP_temperature;BMP_pressure;BME280_temperature;BME280_humidity;BME280_pressure;Samples;Min_cycle;Max_cycle;Signal;HPM_P1;HPM_P2
2021/11/06 00:01:59;;;;;;;58.72;33.78;;;5.50;76.40;;;;;;5092263;28;20118;-83
2021/11/06 00:04:24;;;;;;;56.58;32.03;;;5.40;76.70;;;;;;5098344;28;20509;-84
2021/11/06 00:06:50;;;;;;;49.30;31.30;;;5.40;77.20;;;;;;5098684;28;20111;-84
2021/11/06 00:09:16;;;;;;;48.50;27.75;;;5.30;77.10;;;;;;5079917;28;20024;-84
2021/11/06 00:11:42;;;;;;;44.65;27.33;;;5.30;77.10;;;;;;5078455;28;20099;-83
2021/11/06 00:14:07;;;;;;;43.85;24.35;;;5.40;76.70;;;;;;5076811;28;20021;-83
2021/11/06 00:16:35;;;;;;;38.83;23.95;;;5.40;76.90;;;;;;5078751;28;20033;-84
2021/11/06 00:19:01;;;;;;;35.78;22.83;;;5.50;76.70;;;;;;5078225;28;20032;-84
2021/11/06 00:21:27;;;;;;;41.80;25.58;;;5.40;76.50;;;;;;5093419;28;20078;-84
2021/11/06 00:23:52;;;;;;;35.38;22.00;;;5.40;76.50;;;;;;5078496;28;20028;-84
2021/11/06 00:26:18;;;;;;;35.47;23.70;;;5.30;77.50;;;;;;5077716;28;20056;-84
2021/11/06 00:28:44;;;;;;;36.13;21.52;;;5.30;77.40;;;;;;5078414;28;20043;-83
2021/11/06 00:31:10;;;;;;;33.33;21.98;;;5.30;77.50;;;;;;5083286;28;20046;-84
2021/11/06 00:33:35;;;;;;;36.35;21.75;;;5.30;77.30;;;;;;5098742;28;20024;-84
2021/11/06 00:36:01;;;;;;;34.58;22.88;;;5.30;77.30;;;;;;5092600;28;20126;-84
2021/11/06 00:38:27;;;;;;;41.58;24.40;;;5.20;77.40;;;;;;5093481;28;20143;-84
2021/11/06 00:40:52;;;;;;;41.78;24.05;;;5.20;77.30;;;;;;5078746;28;20059;-84
2021/11/06 00:43:18;;;;;;;36.88;25.05;;;5.20;77.30;;;;;;5077514;28;20087;-84
2021/11/06 00:45:44;;;;;;;42.17;23.58;;;5.30;77.10;;;;;;5077781;28;20021;-82
2021/11/06 00:48:09;;;;;;;40.35;24.35;;;5.30;77.20;;;;;;5077596;28;20034;-84
2021/11/06 00:50:53;;;;;;;35.38;23.20;;;5.30;77.10;;;;;;5078167;28;20145;-84
2021/11/06 00:53:18;;;;;;;30.90;22.90;;;5.30;76.60;;;;;;5077306;28;20100;-83
2021/11/06 00:55:44;;;;;;;35.35;21.65;;;5.30;76.50;;;;;;5077280;28;20056;-85
2021/11/06 00:58:09;;;;;;;37.35;22.25;;;5.20;76.40;;;;;;5077229;28;20433;-84
2021/11/06 01:00:35;;;;;;;36.53;23.83;;;5.20;76.60;;;;;;5078643;28;20031;-84
2021/11/06 01:03:01;;;;;;;33.90;21.25;;;5.20;76.50;;;;;;5098115;28;20505;-84
2021/11/06 01:05:27;;;;;;;52.95;28.30;;;5.00;76.60;;;;;;5091202;28;20029;-84
2021/11/06 01:07:53;;;;;;;44.00;25.02;;;5.10;77.00;;;;;;5093661;28;20020;-84
2021/11/06 01:10:19;;;;;;;42.20;27.63;;;5.10;76.80;;;;;;5097597;28;20032;-84
2021/11/06 01:12:45;;;;;;;43.25;26.75;;;5.10;76.80;;;;;;5088748;28;20078;-84
2021/11/06 01:15:12;;;;;;;41.53;26.48;;;5.00;76.90;;;;;;5077962;28;20422;-85
2021/11/06 01:17:39;;;;;;;51.10;29.30;;;5.00;76.80;;;;;;5077157;28;20016;-84
2021/11/06 01:20:06;;;;;;;45.72;29.67;;;5.00;76.90;;;;;;5093090;28;20034;-84
2021/11/06 01:22:32;;;;;;;40.03;28.02;;;5.00;76.80;;;;;;5091758;28;20059;-84
2021/11/06 01:24:58;;;;;;;45.42;28.20;;;5.00;76.90;;;;;;5077825;28;20029;-84
2021/11/06 01:27:23;;;;;;;42.00;28.65;;;5.00;76.60;;;;;;5076984;28;20032;-84
2021/11/06 01:29:49;;;;;;;43.60;26.73;;;4.90;76.80;;;;;;5077245;28;20044;-84
2021/11/06 01:32:15;;;;;;;37.33;26.38;;;4.90;77.30;;;;;;5092795;28;20020;-84
2021/11/06 01:34:41;;;;;;;50.40;27.75;;;4.80;77.50;;;;;;5076686;28;20410;-84
2021/11/06 01:37:07;;;;;;;41.83;26.80;;;4.90;77.30;;;;;;5077874;28;20107;-84
2021/11/06 01:39:33;;;;;;;41.17;26.27;;;4.90;76.90;;;;;;5076839;28;20020;-83
2021/11/06 01:42:01;;;;;;;41.22;25.80;;;4.80;77.20;;;;;;5077322;28;20076;-84
2021/11/06 01:44:28;;;;;;;46.42;25.42;;;4.80;77.10;;;;;;5092168;28;20028;-84
2021/11/06 01:46:54;;;;;;;41.70;26.42;;;4.80;77.10;;;;;;5076660;28;20027;-83
2021/11/06 01:49:22;;;;;;;42.13;27.73;;;4.80;76.90;;;;;;5077383;28;20494;-84
2021/11/06 01:51:49;;;;;;;46.08;26.38;;;4.90;76.80;;;;;;5076510;28;20052;-84
2021/11/06 01:54:15;;;;;;;47.47;24.98;;;4.90;76.80;;;;;;5092139;28;20481;-84
2021/11/06 01:56:44;;;;;;;45.95;24.98;;;4.80;77.00;;;;;;5076771;28;20024;-84
2021/11/06 01:59:10;;;;;;;39.92;24.90;;;4.80;77.10;;;;;;5076509;28;20036;-84
2021/11/06 02:01:36;;;;;;;40.60;24.27;;;4.80;76.90;;;;;;5076089;28;20542;-83
2021/11/06 02:04:03;;;;;;;34.33;23.23;;;4.80;76.90;;;;;;5076362;28;20464;-84
2021/11/06 02:06:29;;;;;;;45.08;21.88;;;4.80;77.20;;;;;;5081041;28;20487;-83
2021/11/06 02:08:54;;;;;;;36.50;21.55;;;4.80;77.10;;;;;;5091089;28;20097;-84
2021/11/06 02:11:20;;;;;;;33.92;22.10;;;4.70;76.90;;;;;;5075081;28;20017;-84
2021/11/06 02:13:46;;;;;;;33.10;20.27;;;4.80;77.00;;;;;;5088422;28;20110;-84
2021/11/06 02:16:12;;;;;;;34.03;21.85;;;4.70;77.20;;;;;;5096362;28;20090;-84
2021/11/06 02:18:38;;;;;;;42.70;22.00;;;4.70;77.80;;;;;;5096198;28;20453;-84
2021/11/06 02:21:07;;;;;;;38.45;23.00;;;4.70;77.60;;;;;;5096207;28;20024;-84
2021/11/06 02:23:38;;;;;;;34.90;20.77;;;4.70;77.30;;;;;;5095419;28;20561;-84
2021/11/06 02:26:06;;;;;;;36.80;21.98;;;4.70;77.20;;;;;;5088552;28;20644;-84
2021/11/06 02:28:32;;;;;;;37.67;21.83;;;4.70;77.10;;;;;;5096685;28;20027;-84
2021/11/06 02:30:58;;;;;;;47.42;25.20;;;4.70;77.10;;;;;;5094621;28;20024;-84
2021/11/06 02:33:24;;;;;;;41.88;24.95;;;4.70;76.90;;;;;;5096676;28;20056;-84
2021/11/06 02:35:49;;;;;;;40.28;25.13;;;4.70;77.10;;;;;;5095877;28;20024;-84
2021/11/06 02:38:31;;;;;;;39.50;24.48;;;4.70;77.00;;;;;;5094405;28;20024;-85
2021/11/06 02:40:57;;;;;;;39.45;22.90;;;4.60;77.50;;;;;;5076180;28;20031;-84
2021/11/06 02:43:23;;;;;;;43.58;25.55;;;4.60;77.00;;;;;;5074645;28;20079;-84
2021/11/06 02:45:49;;;;;;;52.72;25.63;;;4.50;77.10;;;;;;5076426;28;20067;-84
2021/11/06 02:48:14;;;;;;;42.88;24.65;;;4.60;77.60;;;;;;5075694;28;20020;-84
2021/11/06 02:50:40;;;;;;;48.80;24.83;;;4.60;77.30;;;;;;5076677;28;20502;-84
2021/11/06 02:53:06;;;;;;;35.17;23.33;;;4.60;77.50;;;;;;5075214;28;20027;-84
2021/11/06 02:55:54;;;;;;;36.53;22.83;;;4.50;77.80;;;;;;5076173;28;20097;-84
2021/11/06 02:58:20;;;;;;;40.28;23.52;;;4.60;77.40;;;;;;5075431;28;20036;-84
2021/11/06 03:00:46;;;;;;;39.92;21.73;;;4.50;77.50;;;;;;5075660;28;20033;-84
2021/11/06 03:03:12;;;;;;;35.55;23.67;;;4.50;78.20;;;;;;5077980;28;20478;-84
2021/11/06 03:05:38;;;;;;;40.38;26.17;;;4.50;78.40;;;;;;5075692;28;20044;-84
2021/11/06 03:08:04;;;;;;;43.55;26.67;;;4.50;78.20;;;;;;5088957;28;20410;-83
2021/11/06 03:10:30;;;;;;;44.95;26.02;;;4.50;78.10;;;;;;5094206;28;20048;-84
2021/11/06 03:12:56;;;;;;;39.25;24.85;;;4.60;78.60;;;;;;5080352;28;20024;-84
2021/11/06 03:15:22;;;;;;;57.13;29.77;;;4.50;78.40;;;;;;5095337;28;20039;-84
2021/11/06 03:17:48;;;;;;;36.47;22.08;;;4.50;78.50;;;;;;5079765;28;20028;-84
2021/11/06 03:20:15;;;;;;;33.38;22.10;;;4.50;78.90;;;;;;5080258;28;20032;-84
2021/11/06 03:22:41;;;;;;;37.22;23.88;;;4.50;78.00;;;;;;5079286;28;20020;-84
2021/11/06 03:25:08;;;;;;;40.97;23.58;;;4.50;78.10;;;;;;5079787;28;20036;-84
2021/11/06 03:27:34;;;;;;;35.25;21.80;;;4.50;78.10;;;;;;5079392;28;20029;-84
2021/11/06 03:30:03;;;;;;;32.80;21.88;;;4.50;77.90;;;;;;5080028;28;20029;-84
2021/11/06 03:32:29;;;;;;;25.88;17.95;;;4.40;78.20;;;;;;5077610;28;20021;-84
2021/11/06 03:34:55;;;;;;;33.08;18.73;;;4.40;78.40;;;;;;5079570;28;20044;-84
2021/11/06 03:37:21;;;;;;;30.70;18.85;;;4.30;78.00;;;;;;5095362;28;20062;-84
2021/11/06 03:39:46;;;;;;;32.22;22.15;;;4.10;77.60;;;;;;5079286;28;20021;-84
2021/11/06 03:42:12;;;;;;;29.08;20.77;;;4.00;79.10;;;;;;5079501;28;20792;-84
2021/11/06 03:44:38;;;;;;;29.90;19.33;;;4.00;78.70;;;;;;5078818;28;20031;-84
2021/11/06 03:47:06;;;;;;;29.70;19.75;;;4.20;78.70;;;;;;5090076;28;20109;-84
2021/11/06 03:49:32;;;;;;;29.33;17.77;;;4.20;78.50;;;;;;5099179;28;20021;-84
2021/11/06 03:51:58;;;;;;;27.50;17.92;;;4.20;78.40;;;;;;5093640;28;20039;-84
2021/11/06 03:54:23;;;;;;;26.17;17.50;;;4.30;78.40;;;;;;5078039;28;20060;-84
2021/11/06 03:56:49;;;;;;;24.02;16.40;;;4.40;77.90;;;;;;5078588;28;20063;-84
2021/11/06 03:59:15;;;;;;;23.98;16.35;;;4.40;77.40;;;;;;5079585;28;20054;-84
2021/11/06 04:01:40;;;;;;;27.95;18.35;;;4.40;77.90;;;;;;5078133;28;20032;-84
2021/11/06 04:04:08;;;;;;;20.80;16.05;;;4.20;78.20;;;;;;5078833;28;20102;-84
2021/11/06 04:06:34;;;;;;;26.60;17.88;;;4.20;78.40;;;;;;5081993;28;20103;-84
2021/11/06 04:09:00;;;;;;;25.55;16.23;;;4.20;78.80;;;;;;5084474;28;20452;-84
2021/11/06 04:11:25;;;;;;;26.15;17.00;;;4.20;78.50;;;;;;5077936;28;20032;-84
2021/11/06 04:13:51;;;;;;;22.10;16.10;;;4.30;78.40;;;;;;5078154;28;20032;-84
2021/11/06 04:16:17;;;;;;;24.60;14.95;;;4.40;78.00;;;;;;5094499;28;20025;-84
2021/11/06 04:18:43;;;;;;;23.95;16.52;;;4.40;77.90;;;;;;5078647;28;20036;-84
2021/11/06 04:21:09;;;;;;;16.55;14.05;;;4.40;77.80;;;;;;5078109;28;20060;-82
2021/11/06 04:23:35;;;;;;;24.70;16.45;;;4.40;78.50;;;;;;5078028;28;20036;-84
2021/11/06 04:26:02;;;;;;;27.20;15.77;;;4.40;78.30;;;;;;5078073;28;20099;-83
2021/11/06 04:28:28;;;;;;;23.65;15.65;;;4.40;77.70;;;;;;5078682;28;20021;-83
2021/11/06 04:30:53;;;;;;;23.88;16.05;;;4.40;77.70;;;;;;5077931;28;20028;-84
2021/11/06 04:33:19;;;;;;;22.65;15.88;;;4.40;77.70;;;;;;5078493;28;20028;-84
2021/11/06 04:35:45;;;;;;;23.17;16.27;;;4.30;77.20;;;;;;5076647;28;20119;-84
2021/11/06 04:38:15;;;;;;;23.27;16.27;;;4.30;77.40;;;;;;5076850;28;20479;-84
2021/11/06 04:40:41;;;;;;;24.80;16.00;;;4.20;76.60;;;;;;5077272;28;20077;-84
2021/11/06 04:43:07;;;;;;;23.63;16.25;;;4.10;77.50;;;;;;5093330;28;20032;-84
2021/11/06 04:45:33;;;;;;;24.17;16.55;;;4.10;77.90;;;;;;5093793;28;20036;-83
2021/11/06 04:47:59;;;;;;;27.65;16.90;;;4.10;77.80;;;;;;5077374;28;20092;-83
2021/11/06 04:50:25;;;;;;;20.55;14.07;;;4.10;78.00;;;;;;5078555;28;20059;-85
2021/11/06 04:52:51;;;;;;;21.55;14.90;;;3.90;78.30;;;;;;5078071;28;20052;-84
2021/11/06 04:55:21;;;;;;;23.00;15.75;;;3.90;78.40;;;;;;5077753;28;20431;-84
2021/11/06 04:57:47;;;;;;;25.55;15.27;;;3.90;78.80;;;;;;5078047;28;20087;-84
2021/11/06 05:00:15;;;;;;;19.60;15.75;;;4.00;78.80;;;;;;5077393;28;20506;-83
2021/11/06 05:02:41;;;;;;;21.67;15.30;;;4.00;79.00;;;;;;5078561;28;20025;-83
2021/11/06 05:05:09;;;;;;;18.52;14.07;;;3.90;77.40;;;;;;5077279;28;20111;-83
2021/11/06 05:07:35;;;;;;;29.10;15.93;;;3.90;77.80;;;;;;5090590;28;20028;-83
2021/11/06 05:10:00;;;;;;;24.33;15.30;;;3.80;77.70;;;;;;5097484;28;20553;-83
2021/11/06 05:12:26;;;;;;;20.98;14.00;;;3.80;77.90;;;;;;5080601;28;20025;-83
2021/11/06 05:14:52;;;;;;;21.52;15.25;;;3.80;77.80;;;;;;5077713;28;20029;-83
2021/11/06 05:17:19;;;;;;;27.88;15.70;;;3.80;77.70;;;;;;5077035;28;20556;-84
2021/11/06 05:19:46;;;;;;;20.48;14.20;;;3.80;78.20;;;;;;5078348;28;20020;-83
2021/11/06 05:22:12;;;;;;;24.23;14.85;;;3.80;78.00;;;;;;5077012;28;20028;-83
2021/11/06 05:24:38;;;;;;;19.45;13.77;;;3.80;78.10;;;;;;5077304;28;20033;-83
2021/11/06 05:27:05;;;;;;;21.70;15.02;;;3.90;78.20;;;;;;5076993;28;20700;-83
2021/11/06 05:29:33;;;;;;;24.63;16.00;;;3.80;78.20;;;;;;5076407;28;20056;-83
2021/11/06 05:32:00;;;;;;;26.75;16.08;;;3.80;78.20;;;;;;5076786;28;20028;-83
2021/11/06 05:34:26;;;;;;;24.02;14.20;;;3.90;78.10;;;;;;5075514;28;20028;-83
2021/11/06 05:36:51;;;;;;;22.83;14.32;;;3.80;78.00;;;;;;5077580;28;20786;-83
2021/11/06 05:39:17;;;;;;;25.15;14.10;;;3.80;78.70;;;;;;5077047;28;20037;-84
2021/11/06 05:41:43;;;;;;;21.17;14.13;;;3.80;78.40;;;;;;5077198;28;20040;-84
2021/11/06 05:44:09;;;;;;;23.77;15.52;;;3.80;78.20;;;;;;5076949;28;20036;-84
2021/11/06 05:46:37;;;;;;;18.30;13.65;;;3.90;78.00;;;;;;5076811;28;20079;-83
2021/11/06 05:49:03;;;;;;;23.85;15.75;;;3.80;78.60;;;;;;5076097;28;20083;-84
2021/11/06 05:51:28;;;;;;;22.40;15.60;;;3.70;78.90;;;;;;5076443;28;20021;-83
2021/11/06 05:53:54;;;;;;;23.65;15.15;;;3.70;78.80;;;;;;5077360;28;20084;-84
2021/11/06 05:56:20;;;;;;;26.80;16.40;;;3.70;79.20;;;;;;5076744;28;20065;-84
2021/11/06 05:58:46;;;;;;;22.27;14.77;;;3.80;78.80;;;;;;5077520;28;20501;-84
2021/11/06 06:01:12;;;;;;;19.88;15.32;;;3.70;78.90;;;;;;5076413;28;20236;-84
2021/11/06 06:03:38;;;;;;;27.92;16.38;;;3.80;78.90;;;;;;5076698;28;20056;-83
2021/11/06 06:06:04;;;;;;;26.30;16.17;;;3.80;79.40;;;;;;5077153;28;20134;-84
2021/11/06 06:08:30;;;;;;;23.55;14.23;;;3.80;79.00;;;;;;5081116;28;20471;-84
2021/11/06 06:10:56;;;;;;;21.27;14.57;;;3.80;78.90;;;;;;5076841;28;20433;-84
2021/11/06 06:13:21;;;;;;;21.48;15.35;;;3.70;79.00;;;;;;5076286;28;20542;-84
2021/11/06 06:15:47;;;;;;;27.73;16.08;;;3.70;79.10;;;;;;5092600;28;20043;-84
2021/11/06 06:18:13;;;;;;;24.77;15.75;;;3.80;79.40;;;;;;5075874;28;20103;-84
2021/11/06 06:20:39;;;;;;;25.80;15.55;;;3.70;79.60;;;;;;5092020;28;20050;-84
2021/11/06 06:23:05;;;;;;;26.92;15.90;;;3.90;79.10;;;;;;5096400;28;20031;-84
2021/11/06 06:25:30;;;;;;;24.85;14.57;;;3.80;79.20;;;;;;5096017;28;20110;-83
2021/11/06 06:27:56;;;;;;;20.58;14.38;;;3.80;79.10;;;;;;5096945;28;20095;-83
2021/11/06 06:30:22;;;;;;;20.67;14.73;;;3.70;78.90;;;;;;5090818;28;20044;-84
2021/11/06 06:32:48;;;;;;;19.65;13.13;;;3.70;79.10;;;;;;5076780;28;20024;-84
2021/11/06 06:35:15;;;;;;;26.55;15.50;;;3.70;79.30;;;;;;5075602;28;20043;-84
2021/11/06 06:37:46;;;;;;;19.85;13.98;;;3.80;79.20;;;;;;5074488;28;20433;-84
2021/11/06 06:40:12;;;;;;;20.50;12.45;;;3.70;78.70;;;;;;5076472;28;20024;-84
2021/11/06 06:42:39;;;;;;;25.92;16.00;;;3.70;79.30;;;;;;5075594;28;20098;-84
2021/11/06 06:45:05;;;;;;;27.40;14.52;;;3.60;79.70;;;;;;5076294;28;20063;-84
2021/11/06 06:47:31;;;;;;;22.23;14.82;;;3.60;78.90;;;;;;5075378;28;20082;-85
2021/11/06 06:49:56;;;;;;;23.52;14.85;;;3.60;79.30;;;;;;5077104;28;20012;-85
2021/11/06 06:52:24;;;;;;;26.13;15.63;;;3.60;79.30;;;;;;5075401;28;20028;-83
2021/11/06 06:54:52;;;;;;;23.55;15.02;;;3.50;79.60;;;;;;5075873;28;20052;-80
2021/11/06 06:57:22;;;;;;;27.35;15.48;;;3.60;79.80;;;;;;5075710;28;20072;-81
2021/11/06 06:59:48;;;;;;;23.25;14.18;;;3.60;79.60;;;;;;5085444;28;20020;-78
2021/11/06 07:02:15;;;;;;;29.42;16.02;;;3.60;79.50;;;;;;5093675;28;20487;-79
2021/11/06 07:04:40;;;;;;;24.50;16.10;;;3.70;79.40;;;;;;5074322;28;20036;-79
2021/11/06 07:07:06;;;;;;;32.58;17.05;;;3.80;79.70;;;;;;5094867;28;20074;-78
2021/11/06 07:09:32;;;;;;;29.08;17.58;;;3.90;79.30;;;;;;5095405;28;20065;-78
2021/11/06 07:11:57;;;;;;;28.27;15.88;;;3.90;79.20;;;;;;5093815;28;20474;-81
2021/11/06 07:14:23;;;;;;;21.52;13.75;;;3.90;79.10;;;;;;5087649;28;20020;-76
2021/11/06 07:16:49;;;;;;;29.08;15.57;;;3.70;79.50;;;;;;5094202;28;20193;-76
2021/11/06 07:19:15;;;;;;;31.27;15.88;;;3.70;80.00;;;;;;5095115;28;20482;-78
2021/11/06 07:21:41;;;;;;;29.38;17.27;;;3.70;80.50;;;;;;5095220;28;20032;-78
2021/11/06 07:24:07;;;;;;;25.80;16.10;;;3.80;80.20;;;;;;5090209;28;20039;-74
2021/11/06 07:26:34;;;;;;;45.67;21.95;;;3.90;79.80;;;;;;5075138;28;20027;-76
2021/11/06 07:28:59;;;;;;;38.03;20.50;;;4.00;79.20;;;;;;5079917;28;21719;-78
2021/11/06 07:31:25;;;;;;;38.33;22.88;;;4.00;79.30;;;;;;5095219;28;20032;-76
2021/11/06 07:33:54;;;;;;;34.70;20.10;;;4.10;79.70;;;;;;5095126;28;20025;-79
2021/11/06 07:36:20;;;;;;;30.08;18.30;;;4.20;79.70;;;;;;5079649;28;20044;-76
2021/11/06 07:38:46;;;;;;;32.97;18.70;;;4.30;79.90;;;;;;5076818;28;20068;-76
2021/11/06 07:41:12;;;;;;;36.08;20.20;;;4.50;79.20;;;;;;5076799;28;20039;-76
2021/11/06 07:43:38;;;;;;;18.05;14.70;;;4.60;79.10;;;;;;5089726;28;20055;-76
2021/11/06 07:46:05;;;;;;;27.05;17.15;;;4.70;78.60;;;;;;5089562;28;20445;-76
2021/11/06 07:48:31;;;;;;;19.13;13.88;;;4.60;78.50;;;;;;5074984;28;20035;-76
2021/11/06 07:50:57;;;;;;;27.27;15.20;;;4.50;79.20;;;;;;5074911;28;20084;-76
2021/11/06 07:56:02;;;;;;;22.33;16.35;;;4.60;80.10;;;;;;5072735;28;20375;-77
2021/11/06 07:58:28;;;;;;;26.60;18.00;;;4.70;79.60;;;;;;5069337;28;20183;-78
2021/11/06 08:00:54;;;;;;;21.65;15.93;;;4.90;79.30;;;;;;5067406;28;20216;-77
2021/11/06 08:03:20;;;;;;;24.52;16.85;;;4.90;79.00;;;;;;5070543;28;20017;-77
2021/11/06 08:05:46;;;;;;;35.78;19.70;;;5.00;79.00;;;;;;5071720;28;20039;-76
2021/11/06 08:08:12;;;;;;;30.63;20.55;;;5.00;78.80;;;;;;5091123;28;20016;-76
2021/11/06 08:10:38;;;;;;;25.65;18.70;;;5.10;79.30;;;;;;5053112;28;20040;-76
2021/11/06 08:13:05;;;;;;;25.95;17.58;;;5.20;78.80;;;;;;5054167;28;20525;-76
2021/11/06 08:15:31;;;;;;;28.20;17.77;;;5.40;78.50;;;;;;5070872;28;20025;-76
2021/11/06 08:17:57;;;;;;;33.72;18.77;;;5.40;78.60;;;;;;5071590;28;20035;-75
2021/11/06 08:20:23;;;;;;;31.17;18.48;;;5.50;78.50;;;;;;5070757;28;20025;-75
2021/11/06 08:22:50;;;;;;;33.05;19.20;;;5.50;78.70;;;;;;5068373;28;20573;-76
2021/11/06 08:25:16;;;;;;;28.83;19.02;;;5.60;78.40;;;;;;5071717;28;20036;-76
2021/11/06 08:27:54;;;;;;;24.05;17.50;;;5.60;78.60;;;;;;5068959;28;20021;-76
2021/11/06 08:30:21;;;;;;;27.60;17.65;;;5.70;78.70;;;;;;5069723;28;20025;-74
2021/11/06 08:32:49;;;;;;;28.27;17.85;;;6.00;78.30;;;;;;5071225;28;20024;-73
2021/11/06 08:35:16;;;;;;;25.38;17.77;;;6.10;78.10;;;;;;5067308;28;20032;-73
2021/11/06 08:37:41;;;;;;;22.23;16.38;;;6.20;78.00;;;;;;5069036;28;20157;-74
2021/11/06 08:40:09;;;;;;;22.90;16.25;;;6.40;77.70;;;;;;5071570;28;20025;-74
2021/11/06 08:42:36;;;;;;;21.70;14.07;;;6.40;78.30;;;;;;5069187;28;20052;-74
2021/11/06 08:45:04;;;;;;;27.13;17.13;;;6.60;78.30;;;;;;5070240;28;20055;-74
2021/11/06 08:47:30;;;;;;;22.90;15.10;;;6.60;77.70;;;;;;5071425;28;20025;-74
2021/11/06 08:49:56;;;;;;;20.90;14.75;;;6.60;78.10;;;;;;5070520;28;20076;-74
2021/11/06 08:52:21;;;;;;;18.42;13.75;;;6.80;77.90;;;;;;5065782;28;20541;-74
2021/11/06 08:54:48;;;;;;;20.40;13.00;;;6.80;77.90;;;;;;5051459;28;20048;-74
2021/11/06 08:57:15;;;;;;;20.52;14.57;;;6.80;78.00;;;;;;5051578;28;20029;-74
2021/11/06 08:59:40;;;;;;;19.25;13.95;;;7.00;77.40;;;;;;5051533;28;20381;-74
2021/11/06 09:02:07;;;;;;;19.90;14.93;;;6.90;77.40;;;;;;5051383;28;20083;-74
2021/11/06 09:04:32;;;;;;;19.30;13.27;;;6.90;77.60;;;;;;5093276;28;20052;-74
2021/11/06 09:06:58;;;;;;;18.33;14.30;;;6.90;77.60;;;;;;5060129;28;20039;-74
2021/11/06 09:09:24;;;;;;;18.35;13.60;;;7.00;77.30;;;;;;5057701;28;20213;-74
2021/11/06 09:11:52;;;;;;;19.45;13.65;;;6.90;77.70;;;;;;5056442;28;20029;-74
2021/11/06 09:14:18;;;;;;;18.23;14.00;;;7.00;77.40;;;;;;5055556;28;20025;-74
2021/11/06 09:16:45;;;;;;;22.85;15.07;;;7.00;77.30;;;;;;5055753;28;20033;-75
2021/11/06 09:19:13;;;;;;;21.85;14.23;;;7.00;77.40;;;;;;5054749;28;20104;-75
2021/11/06 09:21:40;;;;;;;20.55;15.60;;;7.10;77.40;;;;;;5057027;28;20025;-75
2021/11/06 09:24:07;;;;;;;20.38;15.63;;;7.10;77.40;;;;;;5044527;28;20022;-74
2021/11/06 09:26:38;;;;;;;23.20;16.17;;;7.10;77.40;;;;;;5037612;28;20051;-74
2021/11/06 09:29:07;;;;;;;21.40;15.65;;;7.20;77.40;;;;;;5037781;28;20025;-75
2021/11/06 09:31:33;;;;;;;20.85;15.00;;;7.40;77.30;;;;;;5036899;28;20087;-75
2021/11/06 09:33:59;;;;;;;20.60;14.80;;;7.50;77.40;;;;;;5051136;28;20034;-75
2021/11/06 09:36:26;;;;;;;25.27;15.98;;;7.50;77.70;;;;;;5054922;28;20124;-75
2021/11/06 09:38:56;;;;;;;19.55;15.20;;;7.60;77.70;;;;;;5054560;28;20602;-75
2021/11/06 09:41:22;;;;;;;25.17;15.85;;;7.60;77.90;;;;;;5056911;28;20024;-77
2021/11/06 09:43:49;;;;;;;23.10;15.68;;;7.60;77.40;;;;;;5056045;28;20487;-77
2021/11/06 09:46:15;;;;;;;21.50;14.70;;;7.70;77.60;;;;;;5056131;28;21045;-76
2021/11/06 09:48:43;;;;;;;17.42;14.32;;;7.60;77.90;;;;;;5037541;28;20028;-77
2021/11/06 09:51:09;;;;;;;24.55;16.60;;;7.70;77.70;;;;;;5037504;28;20018;-75
2021/11/06 09:53:40;;;;;;;19.50;14.30;;;7.90;77.00;;;;;;5067909;28;20025;-88
2021/11/06 09:56:17;;;;;;;20.65;15.40;;;8.10;76.90;;;;;;5071689;28;20036;-84
2021/11/06 09:58:43;;;;;;;22.10;15.38;;;8.30;76.80;;;;;;5046857;28;20021;-88
2021/11/06 10:01:09;;;;;;;17.85;14.18;;;8.50;76.40;;;;;;5049176;28;20033;-82
2021/11/06 10:03:36;;;;;;;19.95;14.73;;;8.60;76.20;;;;;;5052500;28;20017;-82
2021/11/06 10:06:12;;;;;;;22.63;15.93;;;8.60;75.80;;;;;;5046222;28;20082;-80
2021/11/06 10:08:39;;;;;;;24.42;15.75;;;8.60;76.10;;;;;;5053527;28;20033;-84
2021/11/06 10:11:16;;;;;;;21.25;15.63;;;8.70;76.30;;;;;;5041200;28;20026;-81
2021/11/06 10:13:48;;;;;;;21.75;15.57;;;8.80;76.30;;;;;;5042012;28;20112;-79
2021/11/06 10:16:16;;;;;;;21.50;15.95;;;8.90;76.30;;;;;;5044631;28;20515;-77
2021/11/06 10:18:42;;;;;;;17.70;13.55;;;9.00;75.70;;;;;;5046225;28;20025;-78
2021/11/06 10:21:07;;;;;;;16.70;14.32;;;9.10;75.80;;;;;;5045593;28;20074;-79
2021/11/06 10:23:38;;;;;;;19.80;14.88;;;9.10;75.90;;;;;;5050417;28;20025;-79
2021/11/06 10:26:15;;;;;;;20.58;15.13;;;9.20;75.50;;;;;;5043078;28;20040;-79
2021/11/06 10:28:42;;;;;;;18.50;14.05;;;9.30;75.90;;;;;;5066545;28;20104;-77
2021/11/06 10:31:08;;;;;;;18.48;14.55;;;9.50;75.70;;;;;;5075722;28;20020;-77
2021/11/06 10:33:46;;;;;;;17.90;14.10;;;9.50;75.90;;;;;;5060230;28;20029;-77
2021/11/06 10:36:24;;;;;;;18.15;13.65;;;9.50;76.50;;;;;;5036470;28;20526;-77
2021/11/06 10:39:03;;;;;;;19.95;13.70;;;9.60;76.10;;;;;;5033978;28;20053;-77
2021/11/06 10:41:32;;;;;;;22.13;13.50;;;9.70;76.10;;;;;;5036474;28;20065;-77
2021/11/06 10:43:58;;;;;;;20.02;13.63;;;9.80;76.00;;;;;;5034545;28;20116;-77
2021/11/06 10:46:25;;;;;;;16.08;11.65;;;9.90;75.40;;;;;;5035165;28;20049;-77
2021/11/06 10:48:51;;;;;;;15.52;10.65;;;10.00;75.00;;;;;;5052494;28;20033;-77
2021/11/06 10:51:17;;;;;;;13.05;9.80;;;10.10;74.30;;;;;;5054881;28;20078;-77
2021/11/06 10:53:50;;;;;;;16.25;9.90;;;10.20;74.80;;;;;;5050804;28;20025;-77
2021/11/06 10:56:27;;;;;;;14.18;10.35;;;10.20;74.50;;;;;;5042442;28;20051;-77
2021/11/06 10:58:55;;;;;;;9.70;8.50;;;10.20;75.00;;;;;;5042353;28;20068;-77
2021/11/06 11:01:32;;;;;;;13.23;8.95;;;10.20;74.60;;;;;;5035754;28;20021;-77
2021/11/06 11:04:01;;;;;;;17.02;8.25;;;10.30;74.50;;;;;;5049016;28;20028;-77
2021/11/06 11:06:32;;;;;;;12.45;7.20;;;10.30;73.80;;;;;;5059529;28;20020;-77
2021/11/06 11:08:58;;;;;;;12.60;7.93;;;10.40;73.80;;;;;;5074400;28;20028;-77
2021/11/06 11:11:27;;;;;;;13.65;7.70;;;10.40;73.70;;;;;;5053669;28;20013;-77
2021/11/06 11:14:00;;;;;;;11.27;7.50;;;10.50;74.40;;;;;;5053772;28;20033;-78
2021/11/06 11:16:26;;;;;;;10.95;7.18;;;10.60;74.10;;;;;;5052411;28;20054;-80
2021/11/06 11:18:55;;;;;;;9.43;7.88;;;10.70;73.30;;;;;;5054317;28;20457;-76
2021/11/06 11:21:30;;;;;;;11.35;7.53;;;10.70;73.80;;;;;;5044830;28;20064;-76
2021/11/06 11:23:59;;;;;;;13.35;7.43;;;10.80;73.30;;;;;;5038414;28;20115;-81
2021/11/06 11:26:36;;;;;;;8.43;6.55;;;10.80;73.20;;;;;;5048704;28;20033;-74
2021/11/06 11:29:03;;;;;;;9.10;7.07;;;10.80;73.30;;;;;;5046070;28;20040;-78
2021/11/06 11:31:30;;;;;;;8.82;6.07;;;11.00;73.60;;;;;;5039207;28;20043;-79
2021/11/06 11:33:56;;;;;;;8.30;5.82;;;11.10;73.20;;;;;;5044019;28;20057;-79
2021/11/06 11:36:28;;;;;;;9.15;6.05;;;11.20;73.20;;;;;;5044179;28;20034;-85
2021/11/06 11:38:56;;;;;;;9.52;5.50;;;11.30;72.50;;;;;;5044766;28;20112;-81
2021/11/06 11:41:44;;;;;;;12.10;6.47;;;11.40;72.50;;;;;;5050429;28;20089;-78
2021/11/06 11:44:30;;;;;;;11.15;6.03;;;11.50;73.10;;;;;;5047225;28;20021;-78
2021/11/06 11:47:02;;;;;;;11.35;6.25;;;11.60;72.80;;;;;;5038911;28;20060;-83
2021/11/06 11:49:34;;;;;;;9.13;5.60;;;11.70;71.90;;;;;;5041455;28;20029;-79
2021/11/06 11:52:29;;;;;;;8.85;5.35;;;11.70;71.80;;;;;;5050809;28;20029;-84
2021/11/06 11:55:00;;;;;;;8.95;5.72;;;11.80;72.50;;;;;;5043855;28;20053;-80
2021/11/06 11:57:26;;;;;;;11.70;6.50;;;11.80;71.60;;;;;;5047277;28;20083;-80
2021/11/06 11:59:54;;;;;;;13.90;6.88;;;11.80;72.00;;;;;;5038746;28;20048;-79
2021/11/06 12:02:27;;;;;;;10.50;5.43;;;11.80;71.60;;;;;;5046572;28;20041;-79
2021/11/06 12:05:21;;;;;;;9.27;5.22;;;11.80;70.80;;;;;;5048495;28;20034;-82
2021/11/06 12:08:08;;;;;;;9.27;5.40;;;11.80;71.50;;;;;;5045735;28;20025;-78
2021/11/06 12:10:35;;;;;;;7.00;4.97;;;11.90;70.40;;;;;;5052590;28;20092;-80
2021/11/06 12:13:02;;;;;;;7.00;4.68;;;12.00;71.00;;;;;;5050033;28;20048;-81
2021/11/06 12:15:53;;;;;;;12.70;5.50;;;12.00;71.00;;;;;;5044229;28;20037;-78
2021/11/06 12:18:30;;;;;;;;;;;12.00;70.80;;;;;;5055960;28;20036;-81
2021/11/06 12:21:17;;;;;;;8.95;5.18;;;12.10;70.70;;;;;;5061823;28;19909;-80
2021/11/06 12:23:57;;;;;;;7.53;4.95;;;12.20;70.80;;;;;;5037993;28;20057;-82
2021/11/06 12:26:43;;;;;;;7.28;4.93;;;12.20;71.30;;;;;;5044565;28;20025;-90
2021/11/06 12:29:15;;;;;;;10.27;4.78;;;12.00;71.20;;;;;;5047976;28;20060;-74
2021/11/06 12:31:48;;;;;;;9.77;5.10;;;11.90;71.50;;;;;;5045437;28;20026;-77
2021/11/06 12:34:41;;;;;;;6.18;4.32;;;11.80;71.30;;;;;;5047818;28;20116;-78
2021/11/06 12:37:07;;;;;;;7.75;5.07;;;11.80;71.70;;;;;;5043223;28;20036;-76
2021/11/06 12:39:54;;;;;;;10.18;5.40;;;11.90;71.20;;;;;;5048914;28;20491;-79
2021/11/06 12:42:22;;;;;;;7.85;4.60;;;12.00;71.50;;;;;;5054153;28;20131;-79
2021/11/06 12:44:51;;;;;;;5.18;4.20;;;12.10;71.80;;;;;;5055181;28;20526;-79